Time;durP1;ratioP1;P1;durP2;ratioP2;P2;SDS_P1;SDS_P2;PMS_P1;PMS_P2;Temp;Humidity;BMP_temperature;BMP_pressure;BME280_temperature;BME280_humidity;BME280_pressure;Samples;Min_cycle;Max_cycle;Signal;HPM_P1;HPM_P2
2021/04/18 00:00:41;;;;;;;11.90;7.23;;;7.70;38.90;;;;;;5074087;28;20172;-83
2021/04/18 00:03:07;;;;;;;13.73;6.97;;;7.70;38.50;;;;;;5075717;28;20181;-80
2021/04/18 00:05:32;;;;;;;12.07;7.27;;;7.70;39.20;;;;;;5074440;28;20176;-81
2021/04/18 00:08:02;;;;;;;12.83;7.70;;;7.70;41.20;;;;;;5075962;28;20263;-84
2021/04/18 00:10:32;;;;;;;15.37;7.63;;;7.70;41.90;;;;;;5074321;28;20279;-83
2021/04/18 00:13:00;;;;;;;13.37;7.70;;;7.70;42.40;;;;;;5074235;28;20321;-84
2021/04/18 00:15:26;;;;;;;12.53;7.20;;;7.70;41.90;;;;;;5073944;28;20172;-83
2021/04/18 00:17:51;;;;;;;11.77;7.13;;;7.80;40.50;;;;;;5075364;28;20176;-83
2021/04/18 00:20:18;;;;;;;13.03;7.13;;;7.70;40.50;;;;;;5074866;28;20180;-82
2021/04/18 00:22:44;;;;;;;13.33;6.83;;;7.70;43.60;;;;;;5073880;28;20176;-84
2021/04/18 00:25:16;;;;;;;16.30;8.00;;;7.60;45.00;;;;;;5073749;28;20245;-78
2021/04/18 00:27:44;;;;;;;13.10;7.40;;;7.40;49.00;;;;;;5074991;28;20313;-80
2021/04/18 00:30:12;;;;;;;15.57;7.60;;;7.40;51.80;;;;;;5075026;28;20168;-83
2021/04/18 00:32:39;;;;;;;11.93;7.77;;;7.40;53.20;;;;;;5074981;28;20168;-80
2021/04/18 00:35:06;;;;;;;13.40;7.53;;;7.40;53.80;;;;;;5074219;28;20300;-82
2021/04/18 00:37:32;;;;;;;13.63;7.50;;;7.40;54.60;;;;;;5074577;28;20213;-83
2021/04/18 00:39:58;;;;;;;16.97;8.30;;;7.40;55.40;;;;;;5073442;28;20255;-81
2021/04/18 00:42:24;;;;;;;12.47;8.10;;;7.40;56.40;;;;;;5074771;28;20176;-79
2021/04/18 00:44:49;;;;;;;18.13;7.87;;;7.30;56.10;;;;;;5075007;28;20168;-81
2021/04/18 00:47:18;;;;;;;13.00;8.20;;;7.30;57.80;;;;;;5074207;28;20219;-82
2021/04/18 00:49:47;;;;;;;11.47;7.30;;;7.30;57.70;;;;;;5074822;28;20226;-80
2021/04/18 00:52:13;;;;;;;11.97;8.00;;;7.20;58.70;;;;;;5073439;28;20192;-81
2021/04/18 00:54:38;;;;;;;15.83;8.80;;;7.30;58.10;;;;;;5074885;28;20177;-81
2021/04/18 00:57:07;;;;;;;12.43;8.03;;;7.20;58.60;;;;;;5074840;28;20176;-82
2021/04/18 00:59:33;;;;;;;12.30;7.83;;;7.20;59.80;;;;;;5073523;28;20539;-81
2021/04/18 01:01:59;;;;;;;15.57;8.40;;;7.20;58.40;;;;;;5074242;28;20176;-82
2021/04/18 01:04:25;;;;;;;12.80;8.13;;;7.30;58.00;;;;;;5074317;28;20223;-81
2021/04/18 01:06:51;;;;;;;11.83;7.60;;;7.40;55.10;;;;;;5072888;28;20812;-83
2021/04/18 01:09:16;;;;;;;14.83;8.37;;;7.40;53.80;;;;;;5074403;28;20521;-83
2021/04/18 01:11:42;;;;;;;12.93;8.03;;;7.50;50.70;;;;;;5073070;28;20262;-81
2021/04/18 01:14:08;;;;;;;16.60;8.53;;;7.50;49.90;;;;;;5074237;28;20160;-83
2021/04/18 01:16:34;;;;;;;11.03;7.70;;;7.60;48.10;;;;;;5073542;28;20175;-82
2021/04/18 01:18:59;;;;;;;14.33;7.60;;;7.60;44.70;;;;;;5074163;28;20183;-83
2021/04/18 01:21:25;;;;;;;15.93;8.00;;;7.50;45.00;;;;;;5072515;28;20172;-81
2021/04/18 01:23:52;;;;;;;13.27;8.33;;;7.50;44.70;;;;;;5073985;28;20187;-80
2021/04/18 01:26:18;;;;;;;12.47;8.67;;;7.60;45.50;;;;;;5073759;28;20811;-81
2021/04/18 01:28:43;;;;;;;17.27;8.87;;;7.60;43.00;;;;;;5073904;28;20244;-82
2021/04/18 01:31:09;;;;;;;17.37;8.13;;;7.60;42.90;;;;;;5073480;28;20520;-83
2021/04/18 01:33:35;;;;;;;15.83;8.40;;;7.60;45.00;;;;;;5073900;28;20247;-83
2021/04/18 01:36:03;;;;;;;13.60;7.77;;;7.60;42.30;;;;;;5073653;28;20164;-80
2021/04/18 01:38:29;;;;;;;14.23;8.03;;;7.60;39.90;;;;;;5072279;28;20178;-82
2021/04/18 01:40:55;;;;;;;14.43;8.00;;;7.60;40.10;;;;;;5073707;28;20165;-82
2021/04/18 01:43:21;;;;;;;12.47;7.93;;;7.70;39.50;;;;;;5073420;28;20228;-81
2021/04/18 01:45:49;;;;;;;13.53;8.57;;;7.60;39.80;;;;;;5073243;28;20168;-81
2021/04/18 01:48:15;;;;;;;13.07;8.07;;;7.60;39.90;;;;;;5072026;28;20241;-81
2021/04/18 01:50:43;;;;;;;14.83;9.60;;;7.70;40.90;;;;;;5073446;28;20256;-81
2021/04/18 01:53:09;;;;;;;12.50;8.90;;;7.50;46.10;;;;;;5072103;28;20172;-81
2021/04/18 01:55:36;;;;;;;13.77;9.13;;;7.60;44.80;;;;;;5073375;28;20251;-81
2021/04/18 01:58:03;;;;;;;15.73;9.77;;;7.40;51.10;;;;;;5072154;28;20542;-80
2021/04/18 02:00:29;;;;;;;12.90;9.40;;;7.30;54.70;;;;;;5072928;28;20655;-81
2021/04/18 02:02:55;;;;;;;15.33;9.67;;;7.20;58.00;;;;;;5071983;28;20177;-81
2021/04/18 02:05:21;;;;;;;14.17;9.47;;;7.10;61.20;;;;;;5073280;28;20592;-80
2021/04/18 02:07:46;;;;;;;14.77;10.70;;;7.10;63.90;;;;;;5072996;28;20234;-82
2021/04/18 02:10:14;;;;;;;17.87;10.60;;;7.10;66.80;;;;;;5072177;28;20640;-83
2021/04/18 02:12:39;;;;;;;17.10;10.77;;;7.20;68.20;;;;;;5071700;28;20179;-82
2021/04/18 02:15:06;;;;;;;20.73;10.83;;;7.10;67.70;;;;;;5073074;28;20538;-82
2021/04/18 02:17:31;;;;;;;15.13;10.50;;;7.00;69.60;;;;;;5071416;28;20180;-83
2021/04/18 02:19:57;;;;;;;17.13;10.07;;;6.90;71.80;;;;;;5073082;28;20654;-81
2021/04/18 02:22:23;;;;;;;16.03;10.73;;;7.00;72.80;;;;;;5072901;28;20170;-82
2021/04/18 02:24:48;;;;;;;20.23;10.77;;;7.10;72.30;;;;;;5072848;28;20188;-82
2021/04/18 02:27:14;;;;;;;14.13;11.40;;;7.00;71.70;;;;;;5072903;28;20215;-80
2021/04/18 02:29:40;;;;;;;15.80;11.27;;;7.00;73.90;;;;;;5072665;28;20180;-82
2021/04/18 02:32:06;;;;;;;17.10;11.67;;;6.90;75.90;;;;;;5072890;28;20191;-82
2021/04/18 02:34:32;;;;;;;17.63;11.80;;;6.90;79.10;;;;;;5072348;28;20165;-81
2021/04/18 02:36:58;;;;;;;19.90;12.40;;;6.80;81.10;;;;;;5071617;28;20178;-81
2021/04/18 02:39:23;;;;;;;18.20;13.13;;;6.80;83.60;;;;;;5072679;28;20168;-81
2021/04/18 02:41:49;;;;;;;21.33;13.57;;;6.80;84.10;;;;;;5072884;28;20581;-80
2021/04/18 02:44:15;;;;;;;18.93;11.73;;;6.80;85.70;;;;;;5071403;28;20175;-82
2021/04/18 02:46:41;;;;;;;21.70;12.57;;;6.70;86.50;;;;;;5073770;28;20204;-84
2021/04/18 02:49:06;;;;;;;17.07;12.50;;;6.60;89.40;;;;;;5072645;28;20529;-80
2021/04/18 02:51:32;;;;;;;21.90;13.23;;;6.50;91.20;;;;;;5072816;28;20230;-82
2021/04/18 02:53:59;;;;;;;16.93;12.03;;;6.50;91.70;;;;;;5072682;28;20172;-81
2021/04/18 02:56:27;;;;;;;19.83;12.90;;;6.50;91.70;;;;;;5074224;28;20202;-83
2021/04/18 02:58:52;;;;;;;20.47;13.83;;;6.50;91.80;;;;;;5070962;28;20233;-84
2021/04/18 03:01:19;;;;;;;15.10;12.37;;;6.50;92.10;;;;;;5072525;28;20173;-83
2021/04/18 03:03:45;;;;;;;18.53;13.07;;;6.50;92.00;;;;;;5072611;28;20183;-79
2021/04/18 03:06:11;;;;;;;20.90;13.47;;;6.60;91.30;;;;;;5071205;28;20283;-81
2021/04/18 03:08:37;;;;;;;20.23;14.43;;;6.60;91.10;;;;;;5072341;28;20186;-80
2021/04/18 03:11:03;;;;;;;18.67;14.40;;;6.70;91.00;;;;;;5072674;28;20296;-80
2021/04/18 03:13:28;;;;;;;18.83;15.10;;;6.80;90.90;;;;;;5072127;28;20168;-82
2021/04/18 03:15:54;;;;;;;20.47;14.70;;;6.70;91.20;;;;;;5071128;28;20176;-82
2021/04/18 03:18:19;;;;;;;18.80;14.67;;;6.70;92.30;;;;;;5072418;28;20187;-80
2021/04/18 03:20:45;;;;;;;24.53;16.20;;;6.60;93.10;;;;;;5071031;28;20172;-81
2021/04/18 03:23:11;;;;;;;20.50;16.23;;;6.60;93.60;;;;;;5072292;28;20172;-83
2021/04/18 03:25:36;;;;;;;22.33;15.87;;;6.70;93.80;;;;;;5072032;28;20195;-81
2021/04/18 03:28:03;;;;;;;22.73;15.87;;;6.80;93.30;;;;;;5072207;28;20184;-80
2021/04/18 03:30:31;;;;;;;21.17;15.97;;;6.80;92.60;;;;;;5071992;28;20636;-80
2021/04/18 03:32:57;;;;;;;19.27;15.43;;;6.90;92.20;;;;;;5071244;28;20663;-80
2021/04/18 03:35:22;;;;;;;19.67;16.63;;;6.90;91.60;;;;;;5072547;28;20164;-82
2021/04/18 03:37:48;;;;;;;20.13;16.30;;;7.00;91.20;;;;;;5072433;28;20199;-81
2021/04/18 03:40:14;;;;;;;21.00;17.37;;;6.90;91.40;;;;;;5071200;28;20172;-81
2021/04/18 03:42:39;;;;;;;21.47;16.63;;;6.90;91.30;;;;;;5070630;28;20207;-83
2021/04/18 03:45:06;;;;;;;21.87;17.37;;;6.90;90.80;;;;;;5072724;28;20226;-81
2021/04/18 03:47:31;;;;;;;25.17;18.23;;;6.90;90.70;;;;;;5076211;28;20215;-81
2021/04/18 03:49:57;;;;;;;22.40;18.07;;;6.90;91.20;;;;;;5075791;28;20169;-80
2021/04/18 03:52:23;;;;;;;24.80;16.80;;;6.90;91.60;;;;;;5074183;28;20192;-81
2021/04/18 03:54:49;;;;;;;23.67;17.80;;;7.00;91.50;;;;;;5075758;28;20549;-80
2021/04/18 03:57:15;;;;;;;21.33;17.87;;;6.90;91.20;;;;;;5075561;28;20251;-80
2021/04/18 03:59:40;;;;;;;23.07;18.33;;;6.90;91.10;;;;;;5074427;28;20267;-80
2021/04/18 04:02:06;;;;;;;23.80;17.00;;;6.90;91.50;;;;;;5074691;28;20255;-80
2021/04/18 04:04:31;;;;;;;19.43;17.33;;;6.90;91.50;;;;;;5074478;28;20259;-80
2021/04/18 04:06:57;;;;;;;22.23;18.27;;;7.00;91.90;;;;;;5074446;28;20204;-81
2021/04/18 04:09:23;;;;;;;25.93;18.80;;;7.00;91.50;;;;;;5075577;28;20188;-79
2021/04/18 04:11:48;;;;;;;24.00;18.57;;;7.00;91.40;;;;;;5075269;28;20583;-80
2021/04/18 04:14:14;;;;;;;20.27;17.40;;;7.00;91.00;;;;;;5075603;28;20165;-81
2021/04/18 04:16:39;;;;;;;19.57;17.43;;;7.00;90.90;;;;;;5075301;28;20247;-80
2021/04/18 04:19:05;;;;;;;22.00;19.10;;;7.10;90.30;;;;;;5075457;28;20659;-83
2021/04/18 04:21:31;;;;;;;23.03;18.40;;;7.10;89.80;;;;;;5075281;28;20310;-80
2021/04/18 04:23:56;;;;;;;24.30;19.20;;;7.00;89.20;;;;;;5074170;28;20181;-82
2021/04/18 04:26:22;;;;;;;22.83;18.63;;;6.90;90.30;;;;;;5073390;28;20214;-79
2021/04/18 04:28:48;;;;;;;22.50;18.37;;;6.90;90.50;;;;;;5075201;28;20183;-81
2021/04/18 04:31:13;;;;;;;27.80;19.53;;;6.80;91.10;;;;;;5073950;28;20178;-81
2021/04/18 04:33:39;;;;;;;22.90;19.60;;;6.70;91.40;;;;;;5073810;28;20218;-80
2021/04/18 04:36:06;;;;;;;26.00;18.93;;;6.70;92.90;;;;;;5075244;28;20173;-81
2021/04/18 04:38:32;;;;;;;26.10;19.00;;;6.60;93.20;;;;;;5073721;28;20180;-82
2021/04/18 04:40:58;;;;;;;24.27;18.63;;;6.50;93.70;;;;;;5073348;28;20268;-81
2021/04/18 04:43:33;;;;;;;25.00;18.83;;;6.60;94.00;;;;;;5073668;28;20176;-80
2021/04/18 04:45:59;;;;;;;26.40;18.17;;;6.60;94.20;;;;;;5072524;28;20212;-81
2021/04/18 04:48:25;;;;;;;21.87;17.67;;;6.50;94.20;;;;;;5073609;28;20210;-82
2021/04/18 04:50:51;;;;;;;27.20;19.80;;;6.40;95.10;;;;;;5074636;28;20204;-81
2021/04/18 04:53:16;;;;;;;23.60;19.00;;;6.40;95.60;;;;;;5074802;28;20196;-80
2021/04/18 04:55:45;;;;;;;28.37;19.07;;;6.40;95.90;;;;;;5074067;28;20172;-80
2021/04/18 04:58:10;;;;;;;23.70;19.47;;;6.40;96.00;;;;;;5074612;28;20172;-81
2021/04/18 05:00:36;;;;;;;21.83;19.23;;;6.30;96.40;;;;;;5074460;28;20515;-80
2021/04/18 05:03:02;;;;;;;26.70;19.17;;;6.40;96.70;;;;;;5074555;28;20632;-80
2021/04/18 05:05:28;;;;;;;25.67;19.67;;;6.40;96.50;;;;;;5074463;28;20164;-80
2021/04/18 05:07:53;;;;;;;26.80;19.80;;;6.40;96.20;;;;;;5074327;28;20257;-79
2021/04/18 05:10:19;;;;;;;28.40;21.03;;;6.50;96.40;;;;;;5074276;28;20179;-79
2021/04/18 05:12:45;;;;;;;22.10;19.30;;;6.50;96.40;;;;;;5074332;28;20179;-79
2021/04/18 05:15:11;;;;;;;26.23;21.07;;;6.60;96.10;;;;;;5074441;28;20302;-79
2021/04/18 05:17:37;;;;;;;24.93;19.93;;;6.70;95.90;;;;;;5074038;28;20566;-80
2021/04/18 05:20:03;;;;;;;28.97;19.90;;;6.70;95.60;;;;;;5072915;28;20184;-80
2021/04/18 05:22:29;;;;;;;24.80;19.83;;;6.80;95.20;;;;;;5073931;28;20176;-80
2021/04/18 05:24:54;;;;;;;24.03;19.27;;;6.80;95.10;;;;;;5073719;28;20617;-81
2021/04/18 05:27:20;;;;;;;28.20;19.33;;;6.80;95.20;;;;;;5073782;28;20208;-81
2021/04/18 05:29:46;;;;;;;30.20;20.93;;;6.90;95.10;;;;;;5072515;28;20172;-81
2021/04/18 05:32:12;;;;;;;26.33;20.40;;;7.00;94.60;;;;;;5072578;28;20180;-82
2021/04/18 05:34:37;;;;;;;28.50;20.17;;;7.10;93.70;;;;;;5072553;28;20176;-80
2021/04/18 05:37:04;;;;;;;26.10;19.23;;;7.20;93.00;;;;;;5073689;28;20211;-80
2021/04/18 05:39:30;;;;;;;29.37;19.70;;;7.10;92.10;;;;;;5073689;28;20186;-81
2021/04/18 05:41:56;;;;;;;26.27;19.43;;;7.10;92.20;;;;;;5073756;28;20640;-80
2021/04/18 05:44:22;;;;;;;26.73;20.10;;;7.30;92.10;;;;;;5072434;28;20169;-81
2021/04/18 05:46:48;;;;;;;24.60;19.47;;;7.40;91.50;;;;;;5073315;28;20208;-81
2021/04/18 05:49:14;;;;;;;24.87;18.33;;;7.50;89.60;;;;;;5073568;28;20175;-80
2021/04/18 05:51:39;;;;;;;23.07;18.43;;;7.50;86.00;;;;;;5073401;28;20196;-81
2021/04/18 05:54:06;;;;;;;27.10;19.40;;;7.50;84.90;;;;;;5072153;28;20632;-80
2021/04/18 05:56:33;;;;;;;24.70;19.43;;;7.40;84.90;;;;;;5073336;28;20171;-82
2021/04/18 05:58:59;;;;;;;25.67;18.90;;;7.30;87.80;;;;;;5072232;28;20184;-83
2021/04/18 06:01:25;;;;;;;22.97;18.33;;;7.30;90.30;;;;;;5073534;28;20172;-82
2021/04/18 06:03:55;;;;;;;28.73;19.63;;;7.40;90.40;;;;;;5073134;28;20712;-80
2021/04/18 06:06:21;;;;;;;29.20;19.43;;;7.50;90.00;;;;;;5073056;28;20196;-80
2021/04/18 06:08:46;;;;;;;29.63;20.37;;;7.50;85.90;;;;;;5072529;28;20172;-83
2021/04/18 06:11:12;;;;;;;23.00;19.30;;;7.70;86.10;;;;;;5072104;28;20312;-81
2021/04/18 06:13:37;;;;;;;31.40;19.47;;;7.60;83.60;;;;;;5073077;28;20709;-82
2021/04/18 06:16:04;;;;;;;24.50;18.90;;;7.70;84.10;;;;;;5073182;28;20160;-82
2021/04/18 06:18:29;;;;;;;28.07;19.97;;;7.60;81.40;;;;;;5073013;28;20214;-80
2021/04/18 06:20:55;;;;;;;24.67;20.73;;;7.70;82.50;;;;;;5072977;28;20569;-83
2021/04/18 06:23:22;;;;;;;28.67;20.47;;;7.90;80.40;;;;;;5072914;28;20165;-82
2021/04/18 06:25:48;;;;;;;27.60;18.40;;;7.70;77.90;;;;;;5071263;28;20287;-81
2021/04/18 06:28:15;;;;;;;23.50;17.50;;;7.70;80.30;;;;;;5073090;28;20295;-80
2021/04/18 06:30:41;;;;;;;25.97;18.30;;;7.70;81.40;;;;;;5072778;28;20168;-80
2021/04/18 06:33:07;;;;;;;27.27;19.60;;;7.80;80.90;;;;;;5072713;28;20164;-80
2021/04/18 06:35:33;;;;;;;24.47;18.17;;;7.90;78.90;;;;;;5072635;28;20226;-80
2021/04/18 06:37:58;;;;;;;28.97;18.97;;;8.00;78.10;;;;;;5072605;28;20624;-84
2021/04/18 06:40:24;;;;;;;24.67;17.10;;;7.90;76.60;;;;;;5072735;28;20643;-82
2021/04/18 06:42:57;;;;;;;25.00;17.43;;;7.90;78.50;;;;;;5071275;28;20179;-80
2021/04/18 06:45:24;;;;;;;26.27;17.53;;;7.90;76.70;;;;;;5072789;28;20226;-79
2021/04/18 06:47:51;;;;;;;26.07;18.03;;;7.80;77.40;;;;;;5071074;28;20216;-80
2021/04/18 06:50:17;;;;;;;25.63;18.13;;;7.80;77.60;;;;;;5072337;28;20173;-80
2021/04/18 06:52:43;;;;;;;27.90;18.17;;;7.80;78.40;;;;;;5072956;28;20207;-81
2021/04/18 06:55:11;;;;;;;24.20;18.53;;;7.90;78.80;;;;;;5071487;28;20164;-82
2021/04/18 06:57:37;;;;;;;25.87;17.63;;;8.00;76.40;;;;;;5070997;28;20168;-81
2021/04/18 07:00:06;;;;;;;24.37;17.43;;;8.10;73.70;;;;;;5071130;28;20192;-81
2021/04/18 07:02:34;;;;;;;24.43;18.27;;;8.20;70.00;;;;;;5070919;28;20179;-81
2021/04/18 07:05:00;;;;;;;25.23;17.63;;;8.20;65.50;;;;;;5071870;28;20161;-79
2021/04/18 07:07:35;;;;;;;25.33;16.10;;;8.30;65.50;;;;;;5072486;28;20235;-81
2021/04/18 07:10:01;;;;;;;20.60;15.97;;;8.40;63.10;;;;;;5072304;28;20175;-80
2021/04/18 07:12:31;;;;;;;22.57;15.10;;;8.50;50.20;;;;;;5071078;28;20176;-79
2021/04/18 07:14:58;;;;;;;17.13;13.37;;;8.50;45.50;;;;;;5070776;28;20543;-81
2021/04/18 07:17:24;;;;;;;23.07;15.60;;;8.50;40.40;;;;;;5071062;28;20176;-80
2021/04/18 07:20:10;;;;;;;21.50;16.10;;;8.40;42.20;;;;;;5074012;28;20179;-81
2021/04/18 07:22:36;;;;;;;22.30;16.63;;;8.60;45.00;;;;;;5076174;28;20193;-80
2021/04/18 07:25:03;;;;;;;23.33;15.70;;;8.60;41.10;;;;;;5074864;28;20192;-81
2021/04/18 07:27:49;;;;;;;25.77;15.63;;;8.90;36.70;;;;;;5075428;28;20212;-79
2021/04/18 07:30:20;;;;;;;21.83;14.80;;;9.10;25.30;;;;;;5076622;28;20165;-80
2021/04/18 07:33:00;;;;;;;18.87;14.13;;;9.30;15.40;;;;;;5076707;28;20217;-82
2021/04/18 07:35:33;;;;;;;19.17;10.87;;;9.30;11.90;;;;;;5076066;28;20164;-79
2021/04/18 07:38:27;;;;;;;20.87;12.23;;;9.10;5.40;;;;;;5075200;28;20598;-80
2021/04/18 07:41:14;;;;;;;16.43;12.00;;;9.10;6.20;;;;;;5075662;28;20259;-81
2021/04/18 07:43:44;;;;;;;16.90;11.87;;;9.10;3.10;;;;;;5075588;28;20191;-81
2021/04/18 07:46:10;;;;;;;16.47;12.47;;;9.20;1.00;;;;;;5075147;28;20204;-81
2021/04/18 07:48:36;;;;;;;16.23;13.13;;;9.20;1.00;;;;;;5075038;28;20257;-80
2021/04/18 07:51:02;;;;;;;18.47;13.87;;;9.10;1.00;;;;;;5075257;28;20195;-80
2021/04/18 07:53:27;;;;;;;17.07;13.30;;;9.10;1.00;;;;;;5075474;28;20522;-80
2021/04/18 07:55:53;;;;;;;16.40;13.47;;;9.20;3.80;;;;;;5073972;28;20169;-83
2021/04/18 07:58:19;;;;;;;17.63;12.23;;;9.30;2.50;;;;;;5075277;28;20636;-83
2021/04/18 08:00:44;;;;;;;14.77;11.87;;;9.60;1.00;;;;;;5075094;28;20172;-82
2021/04/18 08:03:13;;;;;;;16.27;12.20;;;9.80;1.00;;;;;;5074949;28;20173;-83
2021/04/18 08:05:39;;;;;;;18.00;10.97;;;10.00;1.00;;;;;;5073677;28;20177;-84
2021/04/18 08:08:14;;;;;;;17.07;11.20;;;10.00;1.00;;;;;;5075103;28;20278;-84
2021/04/18 08:10:49;;;;;;;17.23;11.23;;;10.10;1.00;;;;;;5074819;28;20164;-80
2021/04/18 08:13:20;;;;;;;17.90;11.13;;;10.00;1.00;;;;;;5075131;28;20217;-82
2021/04/18 08:15:55;;;;;;;14.30;10.20;;;10.00;1.00;;;;;;5073329;28;20176;-82
2021/04/18 08:18:45;;;;;;;16.27;9.83;;;9.90;1.00;;;;;;5074756;28;20628;-82
2021/04/18 08:21:38;;;;;;;15.97;10.73;;;9.80;1.00;;;;;;5074970;28;20173;-85
2021/04/18 08:24:14;;;;;;;12.50;10.20;;;9.80;1.00;;;;;;5075279;28;20167;-82
2021/04/18 08:26:56;;;;;;;14.80;9.77;;;9.80;1.00;;;;;;5074634;28;20664;-84
2021/04/18 08:29:22;;;;;;;16.00;11.10;;;9.90;1.00;;;;;;5074726;28;20168;-82
2021/04/18 08:31:59;;;;;;;14.73;10.07;;;9.90;1.00;;;;;;5073288;28;20172;-82
2021/04/18 08:34:33;;;;;;;14.03;9.80;;;10.10;1.00;;;;;;5073341;28;20168;-83
2021/04/18 08:37:01;;;;;;;14.80;9.57;;;10.30;1.00;;;;;;5074665;28;20168;-83
2021/04/18 08:39:47;;;;;;;15.20;8.40;;;10.50;1.00;;;;;;5074712;28;20164;-83
2021/04/18 08:42:25;;;;;;;16.97;9.30;;;10.40;99.90;;;;;;5073057;28;20585;-83
2021/04/18 08:44:51;;;;;;;13.03;9.07;;;10.40;1.00;;;;;;5074573;28;20562;-81
2021/04/18 08:47:21;;;;;;;13.57;9.73;;;10.40;99.90;;;;;;5072614;28;20212;-83
2021/04/18 08:49:57;;;;;;;12.70;9.10;;;10.50;1.00;;;;;;5072901;28;20176;-82
2021/04/18 08:52:25;;;;;;;13.70;8.83;;;10.60;99.90;;;;;;5074343;28;20195;-84
2021/04/18 08:54:54;;;;;;;11.67;8.87;;;10.90;12.30;;;;;;5074535;28;20176;-84
2021/04/18 08:57:27;;;;;;;14.67;9.17;;;10.80;99.90;;;;;;5074445;28;20171;-84
2021/04/18 08:59:56;;;;;;;10.17;7.03;;;10.90;99.90;;;;;;5074512;28;20165;-81
2021/04/18 09:02:23;;;;;;;13.83;7.40;;;10.40;99.90;;;;;;5072493;28;20187;-83
2021/04/18 09:04:53;;;;;;;15.03;7.90;;;10.50;99.90;;;;;;5073149;28;20285;-82
2021/04/18 09:07:21;;;;;;;12.70;7.90;;;10.60;99.90;;;;;;5073948;28;20269;-84
2021/04/18 09:09:48;;;;;;;13.50;8.97;;;10.80;1.00;;;;;;5074179;28;20175;-80
2021/04/18 09:12:15;;;;;;;11.70;8.57;;;10.90;99.90;;;;;;5073731;28;20172;-82
2021/04/18 09:14:51;;;;;;;13.07;8.30;;;11.10;1.00;;;;;;5073609;28;20168;-84
2021/04/18 09:17:27;;;;;;;11.40;8.53;;;11.20;99.90;;;;;;5073760;28;20164;-83
2021/04/18 09:19:55;;;;;;;14.23;8.17;;;11.20;1.00;;;;;;5073894;28;20255;-83
2021/04/18 09:22:27;;;;;;;15.57;7.97;;;11.10;1.00;;;;;;5072654;28;20180;-82
2021/04/18 09:24:52;;;;;;;11.23;7.63;;;11.20;99.90;;;;;;5073747;28;20251;-82
2021/04/18 09:27:21;;;;;;;9.50;6.60;;;11.40;1.00;;;;;;5071939;28;20307;-81
2021/04/18 09:29:53;;;;;;;12.40;8.43;;;11.50;1.00;;;;;;5073602;28;20160;-82
2021/04/18 09:32:24;;;;;;;11.70;7.90;;;11.40;1.00;;;;;;5072248;28;20172;-83
2021/04/18 09:34:50;;;;;;;12.67;9.00;;;11.50;1.00;;;;;;5073679;28;20160;-83
2021/04/18 09:37:18;;;;;;;15.53;9.50;;;11.50;1.00;;;;;;5073597;28;20172;-84
2021/04/18 09:39:49;;;;;;;11.17;8.10;;;11.70;1.00;;;;;;5073528;28;20164;-84
2021/04/18 09:42:14;;;;;;;11.23;8.83;;;11.90;99.90;;;;;;5072757;28;20843;-85
2021/04/18 09:44:45;;;;;;;14.37;9.07;;;11.80;99.90;;;;;;5071301;28;20681;-82
2021/04/18 09:47:28;;;;;;;11.77;8.80;;;12.00;99.90;;;;;;5072834;28;20208;-82
2021/04/18 09:49:59;;;;;;;13.63;8.30;;;12.00;1.00;;;;;;5072931;28;20206;-84
2021/04/18 09:52:39;;;;;;;14.83;9.80;;;12.20;99.90;;;;;;5071710;28;20605;-84
2021/04/18 09:55:25;;;;;;;12.63;8.40;;;12.30;99.90;;;;;;5071939;28;20172;-83
2021/04/18 09:57:53;;;;;;;12.07;8.60;;;12.40;99.90;;;;;;5072976;28;20243;-81
2021/04/18 10:00:18;;;;;;;12.80;9.37;;;12.30;99.90;;;;;;5072883;28;20164;-83
2021/04/18 10:02:56;;;;;;;12.47;8.90;;;12.40;1.00;;;;;;5072676;28;20168;-84
2021/04/18 10:05:22;;;;;;;15.03;9.37;;;12.50;1.00;;;;;;5072841;28;20171;-81
2021/04/18 10:07:48;;;;;;;11.57;7.70;;;12.50;99.90;;;;;;5072622;28;20250;-82
2021/04/18 10:10:31;;;;;;;13.50;8.97;;;12.50;99.90;;;;;;5071341;28;20223;-83
2021/04/18 10:13:00;;;;;;;12.07;8.37;;;12.20;16.10;;;;;;5071320;28;20179;-82
2021/04/18 10:15:26;;;;;;;13.47;8.17;;;12.40;99.90;;;;;;5071544;28;20184;-84
2021/04/18 10:17:52;;;;;;;12.63;8.47;;;12.50;1.00;;;;;;5072530;28;20333;-82
2021/04/18 10:20:28;;;;;;;14.03;7.93;;;12.80;99.90;;;;;;5072759;28;20215;-83
2021/04/18 10:23:09;;;;;;;10.87;7.20;;;12.60;1.00;;;;;;5071047;28;20167;-85
2021/04/18 10:25:36;;;;;;;11.33;7.33;;;12.80;99.90;;;;;;5073043;28;20188;-81
2021/04/18 10:28:02;;;;;;;10.27;7.13;;;12.90;86.30;;;;;;5070750;28;20216;-83
2021/04/18 10:30:29;;;;;;;11.83;7.90;;;12.70;24.20;;;;;;5071244;28;20164;-84
2021/04/18 10:32:55;;;;;;;9.50;6.77;;;12.80;27.10;;;;;;5070860;28;20176;-84
2021/04/18 10:35:22;;;;;;;10.13;7.93;;;12.80;99.90;;;;;;5072565;28;20179;-84
2021/04/18 10:37:48;;;;;;;11.60;7.20;;;12.70;1.00;;;;;;5070858;28;20758;-84
2021/04/18 10:40:15;;;;;;;12.87;7.20;;;12.90;99.90;;;;;;5070822;28;20176;-82
2021/04/18 10:42:41;;;;;;;12.37;6.93;;;13.10;99.90;;;;;;5071896;28;20191;-82
2021/04/18 10:45:09;;;;;;;10.43;7.27;;;13.00;99.90;;;;;;5070974;28;20543;-85
2021/04/18 10:47:34;;;;;;;9.27;6.97;;;13.10;1.00;;;;;;5072051;28;20302;-83
2021/04/18 10:50:02;;;;;;;10.33;6.00;;;13.00;6.10;;;;;;5072252;28;20256;-83
2021/04/18 10:52:28;;;;;;;11.00;6.23;;;12.80;1.00;;;;;;5072505;28;20218;-84
2021/04/18 10:54:54;;;;;;;8.77;6.10;;;13.00;1.00;;;;;;5074253;28;20187;-83
2021/04/18 10:57:19;;;;;;;9.20;6.23;;;13.20;99.90;;;;;;5075947;28;20701;-84
2021/04/18 10:59:45;;;;;;;12.07;6.47;;;13.00;99.90;;;;;;5076209;28;20259;-83
2021/04/18 11:02:11;;;;;;;11.90;6.93;;;13.10;99.90;;;;;;5075929;28;20175;-84
2021/04/18 11:04:36;;;;;;;8.87;6.07;;;13.20;99.90;;;;;;5075947;28;20218;-81
2021/04/18 11:07:03;;;;;;;9.83;6.27;;;13.40;99.90;;;;;;5076109;28;20204;-84
2021/04/18 11:09:29;;;;;;;9.07;6.20;;;13.40;49.10;;;;;;5076034;28;20251;-83
2021/04/18 11:11:55;;;;;;;10.60;6.57;;;13.40;47.50;;;;;;5076034;28;20172;-85
2021/04/18 11:14:21;;;;;;;11.83;7.17;;;13.30;99.90;;;;;;5076223;28;20168;-82
2021/04/18 11:16:47;;;;;;;8.00;5.57;;;13.30;93.70;;;;;;5074380;28;20176;-83
2021/04/18 11:19:13;;;;;;;12.17;6.70;;;13.20;80.20;;;;;;5075668;28;20636;-83
2021/04/18 11:21:39;;;;;;;11.70;6.40;;;13.30;99.90;;;;;;5076061;28;20740;-83
2021/04/18 11:24:04;;;;;;;12.60;6.80;;;13.30;1.00;;;;;;5075512;28;20656;-86
2021/04/18 11:26:30;;;;;;;9.37;6.33;;;13.50;1.00;;;;;;5074023;28;20250;-83
2021/04/18 11:28:56;;;;;;;10.77;6.70;;;13.50;1.00;;;;;;5075540;28;20169;-84
2021/04/18 11:31:22;;;;;;;9.97;6.53;;;13.40;1.00;;;;;;5075999;28;20183;-84
2021/04/18 11:33:48;;;;;;;8.77;6.50;;;13.70;1.00;;;;;;5074353;28;20176;-84
2021/04/18 11:36:15;;;;;;;10.27;6.73;;;14.10;1.00;;;;;;5074347;28;20195;-85
2021/04/18 11:38:41;;;;;;;10.83;7.00;;;14.10;99.90;;;;;;5075782;28;20666;-83
2021/04/18 11:41:07;;;;;;;12.00;7.30;;;14.20;99.90;;;;;;5073811;28;20640;-83
2021/04/18 11:43:33;;;;;;;11.00;7.47;;;13.90;99.90;;;;;;5074801;28;20222;-84
2021/04/18 11:45:58;;;;;;;11.63;7.40;;;14.00;1.00;;;;;;5074994;28;20165;-84
2021/04/18 11:48:24;;;;;;;12.07;7.80;;;13.70;1.00;;;;;;5073890;28;20211;-84
2021/04/18 11:50:50;;;;;;;10.33;6.60;;;13.50;1.00;;;;;;5073634;28;20175;-84
2021/04/18 11:53:16;;;;;;;16.20;8.30;;;13.90;1.00;;;;;;5075326;28;20177;-84
2021/04/18 11:55:42;;;;;;;13.60;7.47;;;14.10;99.90;;;;;;5075183;28;20175;-84
2021/04/18 11:58:07;;;;;;;10.63;6.90;;;13.90;99.90;;;;;;5075318;28;20204;-85
2021/04/18 12:00:35;;;;;;;15.77;8.00;;;14.10;99.90;;;;;;5073692;28;20715;-82
2021/04/18 12:03:00;;;;;;;13.83;8.70;;;14.30;99.90;;;;;;5073601;28;20248;-84
2021/04/18 12:05:26;;;;;;;12.07;7.63;;;14.00;99.90;;;;;;5072812;28;20180;-83
2021/04/18 12:07:52;;;;;;;11.87;8.17;;;14.20;99.90;;;;;;5074603;28;20207;-83
2021/04/18 12:10:18;;;;;;;11.03;8.00;;;14.10;99.90;;;;;;5074534;28;20179;-85
2021/04/18 12:12:43;;;;;;;10.07;8.23;;;14.00;1.00;;;;;;5074752;28;20203;-84
2021/04/18 12:15:11;;;;;;;13.00;8.43;;;13.80;1.00;;;;;;5073518;28;20225;-86
2021/04/18 12:17:37;;;;;;;12.27;8.73;;;13.80;1.00;;;;;;5074726;28;20195;-85
2021/04/18 12:20:09;;;;;;;12.47;8.50;;;14.20;1.00;;;;;;5074770;28;20534;-83
2021/04/18 12:22:35;;;;;;;11.83;8.70;;;14.10;99.90;;;;;;5074834;28;20161;-86
2021/04/18 12:25:01;;;;;;;12.87;8.43;;;14.10;1.00;;;;;;5073074;28;20224;-82
2021/04/18 12:27:27;;;;;;;11.37;7.20;;;14.40;99.90;;;;;;5074384;28;20250;-84
2021/04/18 12:29:53;;;;;;;13.70;8.60;;;14.30;99.90;;;;;;5073338;28;20183;-86
2021/04/18 12:32:19;;;;;;;12.07;9.23;;;14.20;99.90;;;;;;5074687;28;20211;-85
2021/04/18 12:34:45;;;;;;;15.13;8.63;;;14.40;99.90;;;;;;5073023;28;20271;-84
2021/04/18 12:37:10;;;;;;;11.97;8.70;;;14.30;1.00;;;;;;5074278;28;20251;-84
2021/04/18 12:39:36;;;;;;;15.47;9.80;;;14.10;1.00;;;;;;5074513;28;20532;-86
2021/04/18 12:42:02;;;;;;;14.03;9.60;;;14.30;1.00;;;;;;5074483;28;20175;-83